This is the latest recevied weather packets stored in our database for station/object BMCB-38. If no packets are shown the sender has not sent any weather packets the latest 10 day(s).
| Time | Temp. | Humidity | Pressure | Rain* | Wind** | Luminosity | Snow |
|---|---|---|---|---|---|---|---|
| 1777521035 | 7.22° C | 54% | 1025.6 hPa | 0 mm | - | 0 W/m² | - |
| 1777511420 | 9.44° C | 50% | 1025.4 hPa | 0 mm | - | 0 W/m² | - |
| 1777509034 | 10° C | 49% | 1025.3 hPa | 0 mm | - | 0 W/m² | - |
| 1777508435 | 10° C | 48% | 1025.3 hPa | 0 mm | - | 0 W/m² | - |
| 1777506636 | 10.56° C | 46% | 1025.3 hPa | 0 mm | - | 0 W/m² | - |
| 1777495237 | 13.89° C | 35% | 1024 hPa | 0 mm | - | 0 W/m² | - |
| 1777479635 | 18.33° C | 28% | 1022 hPa | 0 mm | - | 330 W/m² | - |
| 1777470036 | 18.33° C | 33% | 1022.3 hPa | 0 mm | - | 686 W/m² | - |
| 1777468238 | 18.33° C | 34% | 1022.3 hPa | 0 mm | - | 726 W/m² | - |
| 1777465839 | 17.78° C | 37% | 1022.5 hPa | 0 mm | - | 760 W/m² | - |
| 1777461037 | 16.67° C | 39% | 1022.9 hPa | 0 mm | - | 760 W/m² | - |
| 1777459836 | 16.67° C | 39% | 1022.9 hPa | 0 mm | - | 748 W/m² | - |
| 1777454437 | 15° C | 43% | 1023 hPa | 0 mm | - | 628 W/m² | - |
| 1777453838 | 13.89° C | 43% | 1023 hPa | 0 mm | - | 608 W/m² | - |
| 1777452038 | 13.33° C | 45% | 1023.1 hPa | 0 mm | - | 546 W/m² | - |
| 1777446038 | 10° C | 55% | 1023.1 hPa | 0 mm | - | 112 W/m² | - |
| 1777442437 | 8.33° C | 57% | 1023 hPa | 0 mm | - | 72 W/m² | - |
| 1777436439 | 7.78° C | 60% | 1022.6 hPa | 0 mm | - | 0 W/m² | - |
| 1777435840 | 7.78° C | 59% | 1022.6 hPa | 0 mm | - | 0 W/m² | - |
| 1777432837 | 8.33° C | 60% | 1022.4 hPa | 0 mm | - | 0 W/m² | - |
| 1777417823 | 11.67° C | 56% | 1021.5 hPa | 0 mm | - | 0 W/m² | - |
| 1777417233 | 11.67° C | 56% | 1021.4 hPa | 0 mm | - | 0 W/m² | - |
| 1777416639 | 11.67° C | 56% | 1021.3 hPa | 0 mm | - | 0 W/m² | - |
| 1777413039 | 12.78° C | 51% | 1021.1 hPa | 0 mm | - | 0 W/m² | - |
| 1777412438 | 13.33° C | 51% | 1021.1 hPa | 0 mm | - | 0 W/m² | - |
* Rain latest hour (hover to see other rain measurements)
** Current wind speed in m/s (hover to see current wind gust speed)